createdAt,value
2022-08-30T00:00:50.039Z,20.62
2022-08-30T00:02:21.713Z,20.63
2022-08-30T00:03:58.596Z,20.59
2022-08-30T00:05:30.860Z,20.58
2022-08-30T00:07:04.087Z,20.57
2022-08-30T00:08:35.950Z,20.55
2022-08-30T00:10:07.865Z,20.54
2022-08-30T00:11:39.568Z,20.52
2022-08-30T00:13:12.393Z,20.51
2022-08-30T00:14:44.153Z,20.51
2022-08-30T00:16:15.934Z,20.47
2022-08-30T00:17:47.614Z,20.41
2022-08-30T00:19:19.224Z,20.38
2022-08-30T00:20:51.051Z,20.37
2022-08-30T00:22:23.396Z,20.41
2022-08-30T00:23:55.380Z,20.44
2022-08-30T00:25:27.090Z,20.48
2022-08-30T00:26:59.220Z,20.49
2022-08-30T00:28:32.198Z,20.48
2022-08-30T00:30:04.422Z,20.49
2022-08-30T00:31:36.014Z,20.52
2022-08-30T00:33:08.052Z,20.55
2022-08-30T00:34:39.904Z,20.58
2022-08-30T00:36:11.545Z,20.58
2022-08-30T00:37:44.631Z,20.56
2022-08-30T00:39:16.988Z,20.55
2022-08-30T00:40:48.881Z,20.54
2022-08-30T00:42:21.082Z,20.53
2022-08-30T00:43:52.646Z,20.48
2022-08-30T00:45:25.743Z,20.51
2022-08-30T00:46:57.335Z,20.54
2022-08-30T00:48:30.621Z,20.51
2022-08-30T00:50:02.303Z,20.53
2022-08-30T00:51:33.962Z,20.53
2022-08-30T00:53:06.447Z,20.54
2022-08-30T00:54:38.130Z,20.55
2022-08-30T00:56:10.304Z,20.55
2022-08-30T00:57:42.474Z,20.54
2022-08-30T00:59:14.155Z,20.52
2022-08-30T01:00:45.843Z,20.51
2022-08-30T01:02:18.700Z,20.53
2022-08-30T01:03:50.636Z,20.52
2022-08-30T01:05:22.552Z,20.53
2022-08-30T01:06:54.670Z,20.54
2022-08-30T01:08:26.241Z,20.54
2022-08-30T01:09:57.877Z,20.54
2022-08-30T01:11:29.438Z,20.52
2022-08-30T01:13:01.333Z,20.51
2022-08-30T01:14:33.895Z,20.48
2022-08-30T01:16:06.922Z,20.46
2022-08-30T01:17:41.614Z,20.44
2022-08-30T01:19:21.846Z,20.44
2022-08-30T01:20:53.717Z,20.46
2022-08-30T01:22:28.867Z,20.45
2022-08-30T01:24:00.458Z,20.46
2022-08-30T01:25:32.236Z,20.48
2022-08-30T01:27:04.155Z,20.45
2022-08-30T01:28:35.784Z,20.42
2022-08-30T01:30:07.579Z,20.39
2022-08-30T01:31:39.272Z,20.37
2022-08-30T01:33:10.972Z,20.38
2022-08-30T01:34:43.499Z,20.41
2022-08-30T01:36:15.330Z,20.42
2022-08-30T01:37:47.164Z,20.42
2022-08-30T01:39:19.232Z,20.41
2022-08-30T01:40:50.850Z,20.41
2022-08-30T01:42:22.680Z,20.40
2022-08-30T01:43:55.341Z,20.40
2022-08-30T01:45:26.981Z,20.39
2022-08-30T01:46:58.889Z,20.36
2022-08-30T01:48:31.097Z,20.31
2022-08-30T01:50:03.689Z,20.27
2022-08-30T01:51:35.522Z,20.25
2022-08-30T01:53:07.225Z,20.25
2022-08-30T01:54:39.671Z,20.26
2022-08-30T01:56:11.641Z,20.30
2022-08-30T01:57:43.315Z,20.30
2022-08-30T01:59:14.945Z,20.26
2022-08-30T02:00:46.719Z,20.17
2022-08-30T02:02:19.063Z,20.03
2022-08-30T02:03:50.968Z,19.93
2022-08-30T02:05:22.874Z,19.88
2022-08-30T02:06:54.619Z,19.91
2022-08-30T02:08:26.437Z,19.93
2022-08-30T02:10:00.834Z,19.95
2022-08-30T02:11:32.387Z,19.96
2022-08-30T02:13:04.013Z,19.98
2022-08-30T02:14:35.959Z,20.01
2022-08-30T02:16:08.990Z,20.04
2022-08-30T02:17:41.793Z,20.09
2022-08-30T02:19:13.419Z,20.13
2022-08-30T02:20:46.546Z,20.13
2022-08-30T02:22:18.277Z,20.13
2022-08-30T02:23:50.243Z,20.15
2022-08-30T02:25:21.909Z,20.16
2022-08-30T02:26:53.612Z,20.15
2022-08-30T02:28:25.940Z,20.16
2022-08-30T02:29:57.511Z,20.15
2022-08-30T02:31:29.268Z,20.11
2022-08-30T02:33:00.975Z,20.09
2022-08-30T02:34:32.584Z,20.09
2022-08-30T02:36:05.169Z,20.06
2022-08-30T02:37:36.909Z,20.03
2022-08-30T02:39:09.015Z,20.01
2022-08-30T02:40:40.715Z,19.96
2022-08-30T02:42:12.657Z,19.92
2022-08-30T02:43:44.330Z,19.84
2022-08-30T02:45:16.103Z,19.81
2022-08-30T02:46:50.842Z,19.80
2022-08-30T02:48:22.525Z,19.80
2022-08-30T02:49:54.163Z,19.80
2022-08-30T02:51:26.196Z,19.77
2022-08-30T02:52:57.698Z,19.73
2022-08-30T02:54:29.606Z,19.67
2022-08-30T02:56:01.160Z,19.64
2022-08-30T02:57:33.595Z,19.63
2022-08-30T02:59:06.130Z,19.61
2022-08-30T03:00:37.811Z,19.60
2022-08-30T03:02:09.455Z,19.59
2022-08-30T03:03:41.808Z,19.61
2022-08-30T03:05:13.898Z,19.62
2022-08-30T03:06:45.924Z,19.64
2022-08-30T03:08:17.573Z,19.66
2022-08-30T03:09:49.246Z,19.63
2022-08-30T03:11:22.606Z,19.63
2022-08-30T03:12:55.485Z,19.64
2022-08-30T03:14:28.216Z,19.63
2022-08-30T03:15:59.826Z,19.62
2022-08-30T03:17:31.551Z,19.63
2022-08-30T03:19:03.549Z,19.62
2022-08-30T03:20:38.867Z,19.61
2022-08-30T03:22:10.800Z,19.55
2022-08-30T03:23:42.538Z,19.54
2022-08-30T03:25:14.201Z,19.53
2022-08-30T03:26:46.670Z,19.53
2022-08-30T03:28:18.568Z,19.52
2022-08-30T03:29:50.211Z,19.52
2022-08-30T03:31:21.990Z,19.50
2022-08-30T03:32:53.618Z,19.45
2022-08-30T03:34:25.483Z,19.44
2022-08-30T03:35:57.165Z,19.46
2022-08-30T03:37:28.788Z,19.45
2022-08-30T03:39:00.432Z,19.43
2022-08-30T03:40:32.314Z,19.40
2022-08-30T03:42:04.853Z,19.37
2022-08-30T03:43:36.593Z,19.38
2022-08-30T03:45:08.882Z,19.35
2022-08-30T03:46:44.061Z,19.34
2022-08-30T03:48:15.936Z,19.37
2022-08-30T03:49:47.518Z,19.38
2022-08-30T03:51:19.210Z,19.40
2022-08-30T03:52:50.927Z,19.39
2022-08-30T03:54:24.839Z,19.39
2022-08-30T03:55:57.405Z,19.39
2022-08-30T03:57:29.561Z,19.37
2022-08-30T03:59:02.930Z,19.37
2022-08-30T04:00:35.478Z,19.35
2022-08-30T04:02:08.247Z,19.37
2022-08-30T04:03:39.872Z,19.37
2022-08-30T04:05:11.684Z,19.36
2022-08-30T04:06:45.869Z,19.37
2022-08-30T04:08:17.503Z,19.36
2022-08-30T04:09:49.133Z,19.37
2022-08-30T04:11:21.589Z,19.33
2022-08-30T04:12:54.014Z,19.33
2022-08-30T04:14:25.757Z,19.31
2022-08-30T04:15:57.479Z,19.34
2022-08-30T04:17:29.225Z,19.36
2022-08-30T04:19:00.755Z,19.36
2022-08-30T04:20:32.422Z,19.34
2022-08-30T04:22:05.007Z,19.35
2022-08-30T04:23:37.041Z,19.35
2022-08-30T04:25:08.900Z,19.39
2022-08-30T04:26:47.334Z,19.44
2022-08-30T04:28:18.878Z,19.45
2022-08-30T04:29:50.768Z,19.45
2022-08-30T04:31:22.425Z,19.47
2022-08-30T04:32:58.487Z,19.49
2022-08-30T04:34:30.921Z,19.52
2022-08-30T04:36:05.235Z,19.56
2022-08-30T04:37:37.509Z,19.58
2022-08-30T04:39:10.644Z,19.61
2022-08-30T04:40:43.124Z,19.63
2022-08-30T04:42:16.361Z,19.66
2022-08-30T04:43:49.211Z,19.70
2022-08-30T04:45:21.053Z,19.73
2022-08-30T04:46:52.805Z,19.75
2022-08-30T04:48:24.637Z,19.79
2022-08-30T04:49:56.454Z,19.81
2022-08-30T04:51:28.088Z,19.88
2022-08-30T04:52:59.940Z,19.91
2022-08-30T04:54:31.750Z,19.92
2022-08-30T04:56:07.457Z,19.96
2022-08-30T04:57:40.492Z,19.98
2022-08-30T04:59:12.211Z,19.98
2022-08-30T05:00:44.258Z,19.99
2022-08-30T05:02:15.956Z,20.03
2022-08-30T05:03:48.338Z,20.04
2022-08-30T05:05:38.587Z,20.04
2022-08-30T05:07:10.411Z,20.07
2022-08-30T05:08:46.223Z,20.09
2022-08-30T05:10:18.559Z,20.12
2022-08-30T05:11:50.143Z,20.14
2022-08-30T05:13:24.339Z,20.16
2022-08-30T05:15:07.303Z,20.17
2022-08-30T05:16:39.058Z,20.20
2022-08-30T05:18:11.562Z,20.24
2022-08-30T05:19:46.663Z,20.25
2022-08-30T05:21:21.952Z,20.26
2022-08-30T05:22:54.195Z,20.29
2022-08-30T05:24:26.206Z,20.33
2022-08-30T05:25:58.002Z,20.36
2022-08-30T05:27:29.963Z,20.36
2022-08-30T05:29:01.703Z,20.37
2022-08-30T05:30:34.139Z,20.40
2022-08-30T05:32:05.890Z,20.41
2022-08-30T05:33:38.896Z,20.38
2022-08-30T05:35:11.619Z,20.37
2022-08-30T05:36:43.238Z,20.37
2022-08-30T05:38:15.026Z,20.38
2022-08-30T05:39:51.403Z,20.42
2022-08-30T05:41:23.546Z,20.43
2022-08-30T05:42:58.398Z,20.40
2022-08-30T05:44:30.038Z,20.42
2022-08-30T05:46:02.059Z,20.44
2022-08-30T05:47:33.907Z,20.46
2022-08-30T05:49:05.873Z,20.48
2022-08-30T05:50:40.087Z,20.54
2022-08-30T05:52:12.967Z,20.60
2022-08-30T05:53:44.861Z,20.65
2022-08-30T05:55:16.542Z,20.71
2022-08-30T05:56:48.798Z,20.80
2022-08-30T05:58:20.905Z,20.95
2022-08-30T05:59:52.853Z,21.06
2022-08-30T06:01:30.609Z,21.20
2022-08-30T06:03:03.413Z,21.31
2022-08-30T06:04:36.779Z,21.35
2022-08-30T06:06:08.992Z,21.33
2022-08-30T06:07:40.949Z,21.32
2022-08-30T06:09:13.050Z,21.37
2022-08-30T06:10:59.055Z,21.46
2022-08-30T06:12:34.589Z,21.51
2022-08-30T06:14:07.659Z,21.54
2022-08-30T06:15:39.560Z,21.59
2022-08-30T06:17:11.503Z,21.68
2022-08-30T06:18:43.135Z,21.70
2022-08-30T06:20:18.243Z,21.71
2022-08-30T06:21:50.316Z,21.63
2022-08-30T06:23:22.572Z,21.60
2022-08-30T06:24:57.382Z,21.60
2022-08-30T06:26:29.921Z,21.62
2022-08-30T06:28:02.675Z,21.61
2022-08-30T06:29:34.436Z,21.60
2022-08-30T06:31:09.655Z,21.60
2022-08-30T06:32:41.558Z,21.61
2022-08-30T06:34:13.797Z,21.60
2022-08-30T06:35:58.160Z,21.61
2022-08-30T06:37:33.098Z,21.63
2022-08-30T06:39:04.782Z,21.63
2022-08-30T06:40:37.761Z,21.66
2022-08-30T06:42:09.914Z,21.66
2022-08-30T06:43:45.506Z,21.65
2022-08-30T06:45:20.720Z,21.62
2022-08-30T06:46:52.468Z,21.66
2022-08-30T06:48:24.186Z,21.68
2022-08-30T06:49:55.894Z,21.69
2022-08-30T06:51:31.692Z,21.67
2022-08-30T06:53:06.327Z,21.71
2022-08-30T06:54:37.902Z,21.74
2022-08-30T06:56:09.973Z,21.77
2022-08-30T06:57:41.891Z,21.81
2022-08-30T06:59:13.986Z,21.81
2022-08-30T07:00:45.568Z,21.80
2022-08-30T07:02:17.221Z,21.85
2022-08-30T07:03:48.851Z,21.89
2022-08-30T07:05:23.349Z,21.91
2022-08-30T07:06:54.989Z,21.93
2022-08-30T07:08:27.294Z,21.92
2022-08-30T07:09:58.931Z,21.94
2022-08-30T07:11:34.983Z,21.96
2022-08-30T07:13:06.999Z,21.94
2022-08-30T07:14:38.826Z,21.96
2022-08-30T07:16:11.887Z,22.00
2022-08-30T07:18:02.311Z,22.00
2022-08-30T07:19:33.956Z,22.04
2022-08-30T07:21:06.935Z,22.05
2022-08-30T07:22:38.752Z,22.11
2022-08-30T07:24:11.676Z,22.16
2022-08-30T07:25:43.381Z,22.19
2022-08-30T07:27:15.039Z,22.21
2022-08-30T07:28:47.068Z,22.22
2022-08-30T07:30:20.606Z,22.20
2022-08-30T07:31:52.624Z,22.25
2022-08-30T07:33:24.409Z,22.29
2022-08-30T07:34:56.055Z,22.34
2022-08-30T07:36:30.311Z,22.30
2022-08-30T07:38:02.098Z,22.33
2022-08-30T07:39:37.927Z,22.35
2022-08-30T07:41:17.085Z,22.36
2022-08-30T07:42:48.894Z,22.38
2022-08-30T07:44:23.144Z,22.39
2022-08-30T07:46:00.824Z,22.39
2022-08-30T07:47:32.551Z,22.30
2022-08-30T07:49:04.571Z,22.19
2022-08-30T07:50:36.404Z,22.03
2022-08-30T07:52:08.325Z,21.95
2022-08-30T07:53:40.096Z,21.84
2022-08-30T07:55:11.817Z,21.79
2022-08-30T07:56:43.445Z,21.69
2022-08-30T07:58:15.482Z,21.68
2022-08-30T07:59:47.536Z,21.72
2022-08-30T08:01:19.579Z,21.78
2022-08-30T08:02:51.421Z,21.84
2022-08-30T08:04:23.330Z,21.85
2022-08-30T08:05:56.113Z,21.89
2022-08-30T08:07:27.740Z,21.96
2022-08-30T08:09:02.645Z,22.03
2022-08-30T08:10:36.003Z,22.14
2022-08-30T08:12:07.770Z,22.20
2022-08-30T08:13:45.202Z,22.26
2022-08-30T08:15:26.769Z,22.36
2022-08-30T08:16:58.464Z,22.42
2022-08-30T08:18:32.027Z,22.50
2022-08-30T08:20:04.371Z,22.57
2022-08-30T08:21:36.524Z,22.70
2022-08-30T08:23:08.279Z,22.79
2022-08-30T08:24:42.207Z,22.90
2022-08-30T08:26:14.000Z,22.96
2022-08-30T08:27:49.227Z,23.11
2022-08-30T08:29:21.176Z,23.31
2022-08-30T08:30:53.065Z,23.56
2022-08-30T08:32:25.022Z,23.80
2022-08-30T08:33:57.252Z,24.03
2022-08-30T08:35:29.240Z,24.20
2022-08-30T08:37:01.178Z,24.38
2022-08-30T08:38:32.871Z,24.57
2022-08-30T08:40:04.920Z,24.77
2022-08-30T08:41:47.256Z,24.94
2022-08-30T08:43:19.619Z,25.12
2022-08-30T08:44:54.657Z,25.23
2022-08-30T08:46:35.373Z,25.27
2022-08-30T08:48:10.697Z,25.27
2022-08-30T08:49:45.174Z,25.31
2022-08-30T08:51:36.695Z,25.32
2022-08-30T08:53:45.375Z,25.40
2022-08-30T08:55:22.518Z,25.45
2022-08-30T08:56:54.741Z,25.45
2022-08-30T08:58:35.884Z,25.48
2022-08-30T09:00:08.538Z,25.52
2022-08-30T09:01:40.259Z,25.56
2022-08-30T09:03:12.974Z,25.54
2022-08-30T09:04:44.917Z,25.53
2022-08-30T09:06:20.799Z,25.54
2022-08-30T09:07:53.318Z,25.56
2022-08-30T09:09:30.219Z,25.62
2022-08-30T09:11:02.699Z,25.65
2022-08-30T09:12:34.790Z,25.69
2022-08-30T09:14:10.692Z,25.73
2022-08-30T09:15:45.590Z,25.80
2022-08-30T09:17:17.866Z,25.90
2022-08-30T09:18:54.626Z,26.03
2022-08-30T09:20:28.110Z,26.17
2022-08-30T09:22:00.761Z,26.33
2022-08-30T09:23:33.383Z,26.55
2022-08-30T09:25:07.162Z,26.67
2022-08-30T09:26:38.876Z,26.77
2022-08-30T09:28:11.854Z,26.85
2022-08-30T09:29:51.040Z,26.91
2022-08-30T09:31:23.583Z,26.88
2022-08-30T09:32:55.552Z,26.87
2022-08-30T09:34:27.269Z,26.85
2022-08-30T09:36:09.831Z,26.79
2022-08-30T09:37:45.418Z,26.74
2022-08-30T09:39:21.552Z,26.74
2022-08-30T09:41:00.354Z,26.73
2022-08-30T09:42:32.126Z,26.77
2022-08-30T09:44:24.397Z,26.79
2022-08-30T09:46:00.189Z,26.70
2022-08-30T09:47:32.573Z,26.66
2022-08-30T09:49:04.291Z,26.58
2022-08-30T09:50:39.515Z,26.54
2022-08-30T09:52:18.357Z,26.60
2022-08-30T09:54:18.380Z,26.58
2022-08-30T09:55:53.321Z,26.56
2022-08-30T09:57:37.935Z,26.53
2022-08-30T09:59:25.129Z,26.32
2022-08-30T10:01:16.426Z,26.15
2022-08-30T10:02:51.537Z,25.98
2022-08-30T10:04:30.849Z,25.91
2022-08-30T10:06:05.972Z,25.90
2022-08-30T10:07:40.455Z,25.89
2022-08-30T10:09:16.163Z,25.90
2022-08-30T10:10:55.540Z,25.94
2022-08-30T10:12:27.509Z,25.93
2022-08-30T10:14:02.590Z,25.93
2022-08-30T10:15:41.561Z,25.97
2022-08-30T10:17:13.275Z,25.96
2022-08-30T10:19:00.534Z,25.92
2022-08-30T10:20:34.109Z,25.95
2022-08-30T10:22:09.022Z,25.95
2022-08-30T10:24:01.910Z,25.92
2022-08-30T10:25:34.423Z,25.85
2022-08-30T10:27:11.597Z,25.81
2022-08-30T10:28:47.095Z,25.71
2022-08-30T10:30:19.000Z,25.58
2022-08-30T10:31:50.824Z,25.52
2022-08-30T10:33:31.830Z,25.41
2022-08-30T10:35:06.522Z,25.33
2022-08-30T10:36:43.628Z,25.27
2022-08-30T10:38:31.149Z,25.18
2022-08-30T10:40:24.335Z,25.04
2022-08-30T10:42:03.612Z,24.90
2022-08-30T10:43:42.263Z,24.77
2022-08-30T10:45:15.094Z,24.64
2022-08-30T10:46:58.771Z,24.56
2022-08-30T10:48:31.580Z,24.52
2022-08-30T10:50:06.466Z,24.48
2022-08-30T10:52:01.676Z,24.43
2022-08-30T10:53:37.435Z,24.44
2022-08-30T10:55:23.540Z,24.41
2022-08-30T10:56:55.269Z,24.43
2022-08-30T10:58:26.956Z,24.38
2022-08-30T11:00:01.315Z,24.35
2022-08-30T11:01:56.575Z,24.33
2022-08-30T11:03:47.254Z,24.31
2022-08-30T11:05:24.714Z,24.26
2022-08-30T11:07:09.980Z,24.09
2022-08-30T11:08:45.280Z,24.00
2022-08-30T11:10:17.427Z,23.96
2022-08-30T11:11:58.367Z,23.88
2022-08-30T11:13:31.072Z,23.86
2022-08-30T11:15:32.012Z,23.79
2022-08-30T11:17:03.730Z,23.77
2022-08-30T11:18:45.715Z,23.74
2022-08-30T11:20:24.726Z,23.80
2022-08-30T11:22:12.212Z,23.82
2022-08-30T11:23:57.907Z,23.76
2022-08-30T11:25:59.864Z,23.67
2022-08-30T11:27:41.444Z,23.60
2022-08-30T11:29:32.936Z,23.62
2022-08-30T11:31:09.078Z,23.65
2022-08-30T11:33:00.367Z,23.56
2022-08-30T11:34:56.959Z,23.45
2022-08-30T11:36:37.679Z,23.26
2022-08-30T11:38:14.134Z,23.16
2022-08-30T11:39:49.052Z,23.06
2022-08-30T11:41:30.033Z,22.94
2022-08-30T11:43:01.780Z,22.87
2022-08-30T11:44:33.588Z,22.85
2022-08-30T11:46:15.400Z,22.77
2022-08-30T11:47:48.526Z,22.74
2022-08-30T11:49:20.701Z,22.71
2022-08-30T11:50:58.287Z,22.65
2022-08-30T11:52:30.215Z,22.64
2022-08-30T11:54:01.933Z,22.57
2022-08-30T11:55:42.532Z,22.53
2022-08-30T11:57:35.670Z,22.51
2022-08-30T11:59:22.702Z,22.46
2022-08-30T12:01:38.626Z,22.42
2022-08-30T12:03:07.734Z,22.41
2022-08-30T12:04:46.156Z,22.38
2022-08-30T12:06:37.996Z,22.37
2022-08-30T12:08:11.031Z,22.35
2022-08-30T12:09:45.951Z,22.35
2022-08-30T12:11:17.768Z,22.34
2022-08-30T12:12:51.015Z,22.31
2022-08-30T12:14:34.842Z,22.26
2022-08-30T12:16:22.713Z,22.26
2022-08-30T12:18:16.104Z,22.22
2022-08-30T12:19:50.640Z,22.20
2022-08-30T12:21:22.429Z,22.19
2022-08-30T12:22:54.909Z,22.20
2022-08-30T12:24:32.730Z,22.16
2022-08-30T12:26:11.043Z,22.17
2022-08-30T12:27:43.002Z,22.19
2022-08-30T12:29:17.224Z,22.19
2022-08-30T12:30:49.647Z,22.20
2022-08-30T12:32:22.710Z,22.19
2022-08-30T12:34:00.582Z,22.17
2022-08-30T12:35:32.636Z,22.18
2022-08-30T12:37:05.520Z,22.22
2022-08-30T12:38:38.500Z,22.24
2022-08-30T12:40:10.628Z,22.26
2022-08-30T12:41:44.885Z,22.30
2022-08-30T12:43:27.461Z,22.33
2022-08-30T12:45:12.917Z,22.36
2022-08-30T12:46:45.904Z,22.39
2022-08-30T12:48:18.890Z,22.49
2022-08-30T12:49:51.466Z,22.54
2022-08-30T12:51:42.231Z,22.58
2022-08-30T12:53:14.422Z,22.64
2022-08-30T12:54:46.739Z,22.69
2022-08-30T12:56:35.052Z,22.72
2022-08-30T12:58:11.916Z,22.77
2022-08-30T12:59:48.818Z,22.81
2022-08-30T13:01:25.434Z,22.88
2022-08-30T13:02:58.237Z,22.93
2022-08-30T13:04:30.487Z,23.00
2022-08-30T13:06:02.754Z,23.08
2022-08-30T13:07:35.507Z,23.12
2022-08-30T13:09:07.355Z,23.16
2022-08-30T13:10:48.983Z,23.25
2022-08-30T13:12:21.977Z,23.30
2022-08-30T13:13:58.576Z,23.36
2022-08-30T13:15:32.682Z,23.39
2022-08-30T13:17:08.578Z,23.48
2022-08-30T13:18:41.963Z,23.55
2022-08-30T13:20:16.358Z,23.61
2022-08-30T13:21:51.915Z,23.61
2022-08-30T13:23:24.021Z,23.64
2022-08-30T13:24:55.895Z,23.69
2022-08-30T13:26:28.965Z,23.77
2022-08-30T13:28:01.170Z,23.83
2022-08-30T13:29:33.093Z,23.87
2022-08-30T13:31:04.902Z,23.87
2022-08-30T13:32:39.040Z,23.88
2022-08-30T13:34:10.872Z,23.92
2022-08-30T13:35:43.229Z,23.95
2022-08-30T13:39:08.315Z,24.03
2022-08-30T13:40:40.404Z,24.02
2022-08-30T13:44:14.281Z,23.96
2022-08-30T13:45:47.614Z,23.92
2022-08-30T13:47:35.446Z,23.91
2022-08-30T13:49:43.179Z,23.92
2022-08-30T13:51:01.103Z,23.95
2022-08-30T13:52:32.945Z,23.98
2022-08-30T13:54:04.979Z,23.98
2022-08-30T13:55:37.598Z,24.00
2022-08-30T13:57:09.707Z,24.04
2022-08-30T13:58:42.622Z,24.04
2022-08-30T14:00:18.027Z,24.05
2022-08-30T14:06:04.932Z,24.14
2022-08-30T14:07:26.570Z,24.13
2022-08-30T14:09:03.802Z,24.14
2022-08-30T14:10:46.565Z,24.17
2022-08-30T14:12:52.377Z,24.20
2022-08-30T14:14:32.342Z,24.26
2022-08-30T14:17:54.890Z,24.31
2022-08-30T14:19:26.622Z,24.33
2022-08-30T14:20:59.608Z,24.33
2022-08-30T14:22:31.276Z,24.35
2022-08-30T14:24:05.309Z,24.32
2022-08-30T14:25:36.960Z,24.30
2022-08-30T14:27:08.720Z,24.30
2022-08-30T14:28:40.425Z,24.28
2022-08-30T14:30:12.437Z,24.24
2022-08-30T14:31:44.534Z,24.22
2022-08-30T14:33:17.472Z,24.11
2022-08-30T14:34:49.671Z,24.05
2022-08-30T14:36:22.864Z,24.03
2022-08-30T14:37:54.661Z,24.03
2022-08-30T14:39:26.512Z,24.04
2022-08-30T14:40:58.236Z,23.99
2022-08-30T14:42:32.603Z,23.93
2022-08-30T14:44:04.413Z,23.92
2022-08-30T14:45:37.817Z,23.90
2022-08-30T14:47:10.213Z,23.88
2022-08-30T14:48:43.039Z,23.86
2022-08-30T14:50:15.351Z,23.85
2022-08-30T14:51:48.605Z,23.86
2022-08-30T14:53:20.227Z,23.88
2022-08-30T14:54:57.143Z,23.94
2022-08-30T14:56:30.320Z,23.99
2022-08-30T14:58:01.974Z,24.00
2022-08-30T14:59:38.916Z,24.02
2022-08-30T15:01:12.309Z,24.05
2022-08-30T15:02:44.417Z,24.10
2022-08-30T15:04:16.588Z,24.09
2022-08-30T15:05:49.863Z,24.10
2022-08-30T15:07:24.733Z,24.14
2022-08-30T15:08:56.494Z,24.22
2022-08-30T15:10:28.187Z,24.27
2022-08-30T15:12:01.567Z,24.33
2022-08-30T15:13:34.272Z,24.36
2022-08-30T15:15:06.904Z,24.37
2022-08-30T15:16:41.070Z,24.35
2022-08-30T15:18:12.874Z,24.29
2022-08-30T15:19:45.541Z,24.26
2022-08-30T15:21:34.415Z,24.23
2022-08-30T15:23:07.349Z,24.21
2022-08-30T15:24:40.971Z,24.19
2022-08-30T15:26:12.546Z,24.13
2022-08-30T15:27:44.222Z,24.09
2022-08-30T15:29:17.483Z,24.10
2022-08-30T15:30:49.403Z,24.10
2022-08-30T15:32:21.086Z,24.10
2022-08-30T15:33:52.905Z,24.12
2022-08-30T15:35:24.646Z,24.10
2022-08-30T15:36:56.783Z,24.12
2022-08-30T15:38:29.337Z,24.14
2022-08-30T15:40:01.132Z,24.12
2022-08-30T15:41:37.706Z,24.11
2022-08-30T15:43:11.918Z,24.08
2022-08-30T15:44:43.780Z,24.05
2022-08-30T15:46:17.139Z,24.04
2022-08-30T15:47:48.917Z,24.00
2022-08-30T15:49:21.102Z,23.95
2022-08-30T15:50:58.550Z,23.94
2022-08-30T15:52:30.756Z,23.93
2022-08-30T15:54:04.570Z,23.94
2022-08-30T15:55:36.228Z,23.94
2022-08-30T15:57:07.927Z,23.93
2022-08-30T15:58:39.529Z,23.88
2022-08-30T16:00:12.608Z,23.81
2022-08-30T16:01:47.388Z,23.72
2022-08-30T16:03:19.991Z,23.67
2022-08-30T16:04:51.794Z,23.61
2022-08-30T16:06:26.070Z,23.59
2022-08-30T16:07:58.392Z,23.50
2022-08-30T16:09:32.676Z,23.46
2022-08-30T16:11:05.804Z,23.47
2022-08-30T16:12:38.448Z,23.47
2022-08-30T16:14:11.518Z,23.45
2022-08-30T16:15:47.298Z,23.46
2022-08-30T16:17:19.142Z,23.43
2022-08-30T16:18:53.602Z,23.43
2022-08-30T16:20:26.421Z,23.39
2022-08-30T16:21:58.671Z,23.35
2022-08-30T16:23:30.641Z,23.34
2022-08-30T16:25:05.394Z,23.32
2022-08-30T16:26:39.332Z,23.30
2022-08-30T16:28:11.326Z,23.26
2022-08-30T16:29:43.261Z,23.21
2022-08-30T16:31:15.483Z,23.17
2022-08-30T16:32:49.571Z,23.14
2022-08-30T16:34:21.455Z,23.12
2022-08-30T16:35:53.849Z,23.06
2022-08-30T16:37:25.667Z,23.01
2022-08-30T16:38:58.632Z,22.95
2022-08-30T16:40:30.892Z,22.89
2022-08-30T16:42:03.439Z,22.83
2022-08-30T16:43:38.889Z,22.79
2022-08-30T16:45:11.139Z,22.74
2022-08-30T16:46:42.970Z,22.71
2022-08-30T16:48:15.594Z,22.68
2022-08-30T16:49:47.932Z,22.67
2022-08-30T16:51:20.686Z,22.64
2022-08-30T16:52:52.724Z,22.61
2022-08-30T16:54:24.879Z,22.58
2022-08-30T16:55:56.836Z,22.52
2022-08-30T16:57:28.657Z,22.44
2022-08-30T16:59:02.957Z,22.43
2022-08-30T17:00:35.018Z,22.43
2022-08-30T17:02:08.412Z,22.41
2022-08-30T17:03:43.483Z,22.42
2022-08-30T17:05:15.158Z,22.47
2022-08-30T17:06:48.378Z,22.54
2022-08-30T17:08:21.599Z,22.56
2022-08-30T17:09:53.837Z,22.56
2022-08-30T17:11:25.925Z,22.55
2022-08-30T17:12:58.412Z,22.50
2022-08-30T17:14:30.178Z,22.43
2022-08-30T17:16:03.513Z,22.37
2022-08-30T17:17:35.637Z,22.31
2022-08-30T17:19:07.602Z,22.28
2022-08-30T17:20:39.279Z,22.23
2022-08-30T17:22:11.772Z,22.23
2022-08-30T17:23:43.664Z,22.22
2022-08-30T17:25:16.512Z,22.24
2022-08-30T17:26:48.203Z,22.23
2022-08-30T17:28:21.856Z,22.25
2022-08-30T17:29:53.890Z,22.26
2022-08-30T17:31:29.207Z,22.24
2022-08-30T17:33:01.110Z,22.11
2022-08-30T17:34:32.914Z,22.03
2022-08-30T17:36:05.159Z,22.00
2022-08-30T17:37:36.778Z,22.02
2022-08-30T17:39:10.827Z,22.00
2022-08-30T17:40:44.183Z,21.97
2022-08-30T17:42:16.621Z,21.95
2022-08-30T17:43:48.572Z,21.89
2022-08-30T17:45:20.838Z,21.85
2022-08-30T17:46:53.644Z,21.84
2022-08-30T17:48:25.447Z,21.82
2022-08-30T17:49:58.074Z,21.82
2022-08-30T17:51:30.805Z,21.85
2022-08-30T17:53:03.498Z,21.84
2022-08-30T17:54:35.198Z,21.83
2022-08-30T17:56:07.113Z,21.83
2022-08-30T17:57:42.064Z,21.85
2022-08-30T17:59:17.788Z,21.86
2022-08-30T18:00:50.371Z,21.85
2022-08-30T18:02:27.799Z,21.84
2022-08-30T18:04:06.377Z,21.82
2022-08-30T18:05:38.525Z,21.82
2022-08-30T18:07:14.307Z,21.83
2022-08-30T18:08:46.438Z,21.84
2022-08-30T18:10:17.981Z,21.85
2022-08-30T18:11:49.846Z,21.75
2022-08-30T18:13:21.474Z,21.70
2022-08-30T18:14:54.245Z,21.66
2022-08-30T18:16:26.615Z,21.64
2022-08-30T18:17:58.687Z,21.63
2022-08-30T18:19:30.538Z,21.64
2022-08-30T18:21:02.144Z,21.63
2022-08-30T18:22:34.059Z,21.60
2022-08-30T18:24:06.585Z,21.55
2022-08-30T18:25:39.914Z,21.47
2022-08-30T18:27:13.416Z,21.38
2022-08-30T18:28:45.258Z,21.26
2022-08-30T18:30:17.072Z,21.18
2022-08-30T18:31:48.697Z,21.16
2022-08-30T18:33:21.819Z,21.17
2022-08-30T18:34:56.564Z,21.17
2022-08-30T18:36:29.533Z,21.17
2022-08-30T18:38:01.198Z,21.15
2022-08-30T18:39:34.293Z,21.14
2022-08-30T18:41:07.514Z,21.14
2022-08-30T18:42:40.181Z,21.14
2022-08-30T18:44:27.243Z,21.14
2022-08-30T18:46:06.477Z,21.13
2022-08-30T18:47:41.150Z,21.14
2022-08-30T18:49:16.852Z,21.18
2022-08-30T18:50:49.286Z,21.16
2022-08-30T18:52:21.104Z,21.13
2022-08-30T18:53:53.229Z,21.13
2022-08-30T18:55:24.991Z,21.13
2022-08-30T18:56:57.097Z,21.13
2022-08-30T18:58:28.792Z,21.13
2022-08-30T19:00:01.046Z,21.10
2022-08-30T19:01:33.019Z,21.09
2022-08-30T19:03:04.893Z,21.07
2022-08-30T19:04:36.584Z,21.06
2022-08-30T19:06:09.609Z,21.07
2022-08-30T19:07:42.115Z,21.09
2022-08-30T19:09:13.790Z,21.10
2022-08-30T19:10:45.377Z,21.13
2022-08-30T19:12:17.060Z,21.16
2022-08-30T19:13:49.555Z,21.15
2022-08-30T19:15:23.080Z,21.16
2022-08-30T19:16:56.408Z,21.20
2022-08-30T19:18:28.572Z,21.20
2022-08-30T19:20:01.178Z,21.22
2022-08-30T19:21:33.238Z,21.23
2022-08-30T19:23:23.033Z,21.25
2022-08-30T19:24:55.317Z,21.27
2022-08-30T19:26:27.588Z,21.28
2022-08-30T19:27:59.458Z,21.31
2022-08-30T19:29:31.308Z,21.31
2022-08-30T19:31:03.812Z,21.29
2022-08-30T19:32:38.178Z,21.33
2022-08-30T19:34:10.224Z,21.33
2022-08-30T19:35:42.330Z,21.33
2022-08-30T19:37:14.799Z,21.31
2022-08-30T19:38:50.496Z,21.26
2022-08-30T19:40:22.255Z,21.23
2022-08-30T19:41:53.909Z,21.19
2022-08-30T19:43:27.319Z,21.12
2022-08-30T19:45:02.844Z,21.09
2022-08-30T19:46:34.613Z,21.07
2022-08-30T19:48:07.098Z,21.06
2022-08-30T19:49:39.636Z,21.08
2022-08-30T19:51:11.590Z,21.07
2022-08-30T19:52:52.645Z,21.03
2022-08-30T19:54:25.895Z,21.01
2022-08-30T19:55:57.950Z,21.01
2022-08-30T19:57:30.065Z,20.97
2022-08-30T19:59:01.715Z,20.96
2022-08-30T20:00:33.362Z,20.96
2022-08-30T20:02:08.024Z,20.94
2022-08-30T20:03:39.880Z,20.95
2022-08-30T20:05:12.606Z,20.92
2022-08-30T20:06:45.347Z,20.90
2022-08-30T20:08:17.060Z,20.87
2022-08-30T20:09:49.203Z,20.86
2022-08-30T20:11:21.263Z,20.85
2022-08-30T20:12:54.747Z,20.83
2022-08-30T20:14:26.343Z,20.81
2022-08-30T20:15:58.041Z,20.79
2022-08-30T20:17:47.537Z,20.78
2022-08-30T20:19:27.459Z,20.76
2022-08-30T20:20:59.801Z,20.74
2022-08-30T20:22:31.651Z,20.72